Terminal Aerodrome Forecast
Issued by NWS Melbourne, FL

Home | Current Version | Previous Version | Text Only | Print | Product List | Glossary On
Versions: 1 2 3 4 5 6 7 8 9 10 11 12 13 14 15 16 17 18 19 20
000
FTUS42 KMLB 030529
TAFMLB
TAF
KMLB 030529Z 0306/0406 VRB03KT 6SM BR FEW003
     FM030800 06004KT 4SM BR SCT003
      TEMPO 0308/0310 2SM BR BKN002
     FM031000 06005KT 3SM BR BKN003
      TEMPO 0310/0314 1SM BR VV002
     FM031500 08008KT P6SM SCT005 SCT020
     FM031700 11011KT P6SM SCT030
     FM040000 12006KT P6SM FEW030 SCT250=

USA.gov is the U.S. government's official web portal to all federal, state and local government web resources and services.